createdAt,value
2023-05-04T00:00:02.855Z,60.24
2023-05-04T00:02:36.704Z,59.95
2023-05-04T00:05:06.360Z,59.54
2023-05-04T00:07:34.772Z,59.43
2023-05-04T00:10:02.465Z,59.64
2023-05-04T00:12:32.029Z,59.75
2023-05-04T00:14:59.884Z,59.50
2023-05-04T00:17:27.680Z,59.82
2023-05-04T00:19:55.393Z,59.50
2023-05-04T00:22:23.223Z,59.31
2023-05-04T00:24:50.938Z,59.22
2023-05-04T00:27:18.678Z,59.05
2023-05-04T00:29:46.385Z,58.63
2023-05-04T00:32:13.914Z,58.49
2023-05-04T00:34:42.414Z,58.62
2023-05-04T00:37:09.976Z,58.61
2023-05-04T00:39:37.658Z,58.28
2023-05-04T00:42:05.478Z,58.33
2023-05-04T00:44:34.709Z,58.28
2023-05-04T00:47:04.027Z,57.96
2023-05-04T00:49:32.001Z,58.31
2023-05-04T00:52:02.649Z,58.17
2023-05-04T00:54:30.743Z,57.98
2023-05-04T00:56:58.917Z,58.04
2023-05-04T00:59:26.605Z,57.69
2023-05-04T01:01:54.170Z,58.06
2023-05-04T01:04:22.079Z,57.96
2023-05-04T01:07:10.181Z,58.15
2023-05-04T01:09:50.752Z,58.44
2023-05-04T01:12:41.710Z,58.33
2023-05-04T01:15:10.455Z,58.24
2023-05-04T01:17:38.876Z,58.30
2023-05-04T01:20:07.452Z,58.62
2023-05-04T01:22:38.342Z,58.48
2023-05-04T01:25:07.939Z,58.47
2023-05-04T01:27:45.159Z,58.21
2023-05-04T01:30:29.902Z,58.38
2023-05-04T01:33:01.382Z,58.78
2023-05-04T01:35:30.353Z,58.62
2023-05-04T01:37:59.740Z,58.55
2023-05-04T01:40:27.330Z,58.58
2023-05-04T01:42:55.150Z,58.83
2023-05-04T01:45:23.097Z,59.00
2023-05-04T01:47:50.786Z,58.82
2023-05-04T01:50:18.547Z,59.02
2023-05-04T01:52:47.036Z,59.29
2023-05-04T01:55:14.756Z,59.27
2023-05-04T01:57:42.232Z,59.37
2023-05-04T02:00:10.455Z,59.04
2023-05-04T02:02:44.507Z,58.93
2023-05-04T02:05:16.728Z,59.18
2023-05-04T02:07:44.573Z,58.66
2023-05-04T02:10:12.271Z,58.88
2023-05-04T02:12:40.409Z,58.60
2023-05-04T02:15:08.733Z,58.39
2023-05-04T02:17:36.413Z,58.47
2023-05-04T02:20:05.315Z,57.84
2023-05-04T02:22:33.585Z,57.67
2023-05-04T02:25:01.363Z,57.89
2023-05-04T02:27:31.714Z,57.48
2023-05-04T02:29:59.606Z,57.03
2023-05-04T02:32:27.536Z,57.08
2023-05-04T02:34:55.400Z,56.82
2023-05-04T02:37:22.933Z,56.34
2023-05-04T02:39:50.723Z,56.42
2023-05-04T02:42:19.227Z,56.18
2023-05-04T02:44:46.945Z,55.94
2023-05-04T02:47:15.050Z,55.94
2023-05-04T02:49:42.774Z,55.64
2023-05-04T02:52:11.558Z,55.45
2023-05-04T02:54:39.335Z,55.70
2023-05-04T02:57:07.232Z,55.50
2023-05-04T02:59:35.108Z,55.21
2023-05-04T03:02:02.999Z,55.24
2023-05-04T03:04:30.821Z,55.25
2023-05-04T03:06:58.463Z,54.68
2023-05-04T03:09:26.027Z,54.71
2023-05-04T03:11:53.735Z,54.12
2023-05-04T03:14:21.458Z,54.27
2023-05-04T03:16:49.348Z,53.69
2023-05-04T03:19:19.194Z,53.53
2023-05-04T03:21:47.393Z,53.43
2023-05-04T03:24:17.855Z,52.88
2023-05-04T03:26:47.346Z,52.68
2023-05-04T03:29:15.637Z,52.39
2023-05-04T03:31:43.272Z,51.92
2023-05-04T03:34:15.078Z,50.98
2023-05-04T03:36:42.846Z,50.93
2023-05-04T03:39:10.726Z,50.58
2023-05-04T03:41:38.428Z,50.20
2023-05-04T03:44:06.599Z,49.46
2023-05-04T03:46:35.745Z,49.35
2023-05-04T03:49:03.380Z,49.10
2023-05-04T03:51:31.523Z,48.83
2023-05-04T03:53:59.144Z,48.60
2023-05-04T03:56:26.900Z,48.34
2023-05-04T03:58:54.576Z,48.14
2023-05-04T04:01:27.113Z,47.96
2023-05-04T04:03:54.866Z,47.63
2023-05-04T04:06:23.345Z,47.45
2023-05-04T04:08:51.084Z,47.04
2023-05-04T04:11:18.759Z,46.87
2023-05-04T04:13:46.553Z,46.72
2023-05-04T04:16:14.271Z,46.50
2023-05-04T04:18:41.953Z,46.30
2023-05-04T04:21:10.491Z,46.09
2023-05-04T04:23:38.338Z,45.83
2023-05-04T04:26:09.186Z,45.64
2023-05-04T04:28:36.884Z,45.40
2023-05-04T04:31:04.779Z,45.15
2023-05-04T04:33:33.010Z,44.78
2023-05-04T04:36:00.722Z,44.37
2023-05-04T04:38:28.336Z,44.47
2023-05-04T04:40:56.127Z,44.25
2023-05-04T04:43:24.026Z,43.69
2023-05-04T04:45:53.997Z,43.47
2023-05-04T04:48:22.228Z,43.08
2023-05-04T04:50:49.834Z,42.68
2023-05-04T04:53:17.564Z,42.60
2023-05-04T04:55:45.417Z,42.19
2023-05-04T04:58:13.185Z,41.87
2023-05-04T05:00:40.834Z,41.49
2023-05-04T05:03:08.465Z,41.52
2023-05-04T05:05:36.108Z,40.82
2023-05-04T05:08:03.913Z,40.50
2023-05-04T05:10:31.526Z,40.17
2023-05-04T05:12:59.103Z,40.30
2023-05-04T05:15:26.787Z,39.74
2023-05-04T05:17:54.519Z,39.41
2023-05-04T05:20:23.683Z,38.84
2023-05-04T05:22:52.260Z,38.55
2023-05-04T05:25:19.880Z,38.29
2023-05-04T05:27:47.932Z,38.01
2023-05-04T05:30:15.751Z,37.67
2023-05-04T05:32:43.525Z,36.86
2023-05-04T05:35:12.581Z,36.79
2023-05-04T05:37:40.308Z,36.38
2023-05-04T05:40:08.498Z,36.22
2023-05-04T05:42:36.288Z,35.83
2023-05-04T05:45:04.780Z,35.43
2023-05-04T05:47:33.945Z,34.85
2023-05-04T05:50:01.990Z,34.25
2023-05-04T05:52:31.140Z,33.42
2023-05-04T05:55:00.463Z,32.97
2023-05-04T05:57:32.013Z,32.85
2023-05-04T05:59:59.769Z,32.59
2023-05-04T06:02:27.514Z,32.36
2023-05-04T06:04:55.193Z,32.22
2023-05-04T06:07:23.937Z,32.13
2023-05-04T06:09:51.872Z,31.88
2023-05-04T06:12:19.491Z,31.57
2023-05-04T06:14:48.051Z,31.20
2023-05-04T06:17:17.492Z,31.20
2023-05-04T06:19:47.527Z,30.61
2023-05-04T06:22:16.695Z,29.54
2023-05-04T06:24:44.336Z,28.77
2023-05-04T06:27:11.942Z,29.03
2023-05-04T06:29:41.489Z,28.70
2023-05-04T06:32:10.486Z,28.33
2023-05-04T06:34:38.362Z,28.11
2023-05-04T06:37:06.171Z,27.72
2023-05-04T06:39:33.836Z,27.21
2023-05-04T06:42:02.293Z,26.88
2023-05-04T06:44:39.712Z,25.44
2023-05-04T06:47:09.767Z,25.88
2023-05-04T06:49:38.300Z,25.93
2023-05-04T06:52:06.127Z,25.85
2023-05-04T06:54:33.909Z,25.13
2023-05-04T06:57:03.981Z,24.17
2023-05-04T06:59:32.604Z,23.84
2023-05-04T07:02:00.151Z,23.33
2023-05-04T07:04:27.941Z,23.14
2023-05-04T07:06:56.313Z,22.57
2023-05-04T07:09:25.211Z,22.16
2023-05-04T07:11:53.486Z,21.77
2023-05-04T07:14:21.950Z,21.18
2023-05-04T07:16:49.790Z,20.80
2023-05-04T07:19:17.756Z,20.54
2023-05-04T07:21:47.422Z,20.50
2023-05-04T07:24:15.383Z,20.09
2023-05-04T07:26:43.251Z,19.58
2023-05-04T07:29:11.566Z,19.36
2023-05-04T07:31:39.403Z,18.82
2023-05-04T07:34:07.367Z,18.69
2023-05-04T07:36:35.719Z,18.50
2023-05-04T07:39:03.564Z,17.79
2023-05-04T07:41:31.271Z,17.51
2023-05-04T07:43:58.905Z,17.35
2023-05-04T07:46:26.762Z,17.48
2023-05-04T07:48:54.268Z,17.02
2023-05-04T07:51:21.838Z,17.17
2023-05-04T07:53:49.482Z,16.83
2023-05-04T07:56:17.079Z,16.55
2023-05-04T07:58:44.847Z,16.28
2023-05-04T08:01:12.502Z,16.58
2023-05-04T08:03:40.458Z,16.30
2023-05-04T08:06:08.168Z,15.99
2023-05-04T08:08:35.896Z,15.81
2023-05-04T08:11:16.307Z,15.45
2023-05-04T08:13:49.360Z,15.49
2023-05-04T08:16:17.401Z,14.83
2023-05-04T08:18:44.916Z,14.65
2023-05-04T08:21:12.605Z,14.84
2023-05-04T08:23:40.227Z,14.20
2023-05-04T08:26:07.909Z,14.55
2023-05-04T08:28:39.843Z,14.53
2023-05-04T08:31:08.119Z,14.24
2023-05-04T08:33:35.701Z,13.77
2023-05-04T08:36:04.622Z,13.37
2023-05-04T08:38:32.457Z,13.27
2023-05-04T08:41:04.360Z,13.13
2023-05-04T08:43:35.968Z,12.54
2023-05-04T08:46:05.109Z,12.51
2023-05-04T08:48:36.014Z,12.62
2023-05-04T08:51:06.737Z,12.21
2023-05-04T08:53:37.288Z,11.56
2023-05-04T08:56:09.393Z,11.19
2023-05-04T08:58:42.550Z,11.39
2023-05-04T09:01:11.165Z,11.04
2023-05-04T09:03:39.755Z,11.48
2023-05-04T09:06:08.769Z,11.05
2023-05-04T09:08:36.418Z,10.70
2023-05-04T09:11:04.866Z,10.56
2023-05-04T09:13:34.161Z,10.45
2023-05-04T09:16:01.705Z,10.35
2023-05-04T09:18:41.625Z,10.32
2023-05-04T09:21:09.610Z,9.73
2023-05-04T09:23:51.635Z,9.77
2023-05-04T09:26:32.986Z,9.42
2023-05-04T09:29:14.454Z,9.07
2023-05-04T09:31:48.467Z,8.86
2023-05-04T09:34:16.296Z,8.66
2023-05-04T09:36:43.880Z,9.08
2023-05-04T09:39:12.530Z,9.25
2023-05-04T09:41:41.024Z,8.71
2023-05-04T09:44:27.506Z,8.82
2023-05-04T09:46:58.053Z,8.71
2023-05-04T09:49:37.057Z,8.80
2023-05-04T09:52:07.672Z,8.45
2023-05-04T09:54:36.373Z,8.74
2023-05-04T09:57:15.304Z,9.03
2023-05-04T09:59:43.643Z,8.79
2023-05-04T10:02:22.638Z,8.75
2023-05-04T10:04:52.843Z,9.16
2023-05-04T10:07:21.257Z,8.75
2023-05-04T10:09:50.416Z,8.53
2023-05-04T10:12:18.225Z,8.36
2023-05-04T10:14:47.236Z,7.84
2023-05-04T10:17:39.677Z,7.69
2023-05-04T10:20:33.489Z,7.35
2023-05-04T10:24:08.761Z,6.77
2023-05-04T10:27:03.660Z,6.79
2023-05-04T10:29:35.345Z,6.96
2023-05-04T10:32:03.430Z,7.19
2023-05-04T10:34:33.214Z,6.86
2023-05-04T10:37:03.125Z,6.43
2023-05-04T10:39:34.263Z,6.30
2023-05-04T10:42:03.869Z,7.01
2023-05-04T10:44:33.414Z,6.86
2023-05-04T10:47:05.646Z,6.86
2023-05-04T10:49:37.048Z,7.28
2023-05-04T10:52:18.109Z,7.32
2023-05-04T10:54:46.968Z,7.02
2023-05-04T10:57:17.738Z,6.61
2023-05-04T10:59:57.239Z,6.10
2023-05-04T11:02:27.229Z,6.22
2023-05-04T11:05:01.724Z,5.99
2023-05-04T11:07:39.077Z,6.07
2023-05-04T11:10:08.493Z,6.46
2023-05-04T11:12:38.073Z,6.14
2023-05-04T11:15:12.370Z,6.07
2023-05-04T11:17:53.207Z,5.62
2023-05-04T11:20:25.764Z,5.90
2023-05-04T11:22:56.608Z,6.37
2023-05-04T11:25:28.506Z,6.08
2023-05-04T11:27:58.470Z,6.47
2023-05-04T11:30:36.110Z,6.27
2023-05-04T11:33:12.524Z,6.17
2023-05-04T11:35:42.427Z,5.85
2023-05-04T11:38:10.452Z,6.02
2023-05-04T11:40:41.080Z,6.59
2023-05-04T11:43:11.474Z,6.48
2023-05-04T11:45:41.179Z,6.41
2023-05-04T11:48:09.883Z,6.44
2023-05-04T11:50:38.520Z,6.54
2023-05-04T11:53:09.946Z,6.86
2023-05-04T11:55:38.944Z,6.69
2023-05-04T11:58:11.778Z,6.75
2023-05-04T12:00:44.035Z,6.70
2023-05-04T12:03:14.406Z,7.01
2023-05-04T12:05:51.736Z,8.32
2023-05-04T12:08:42.465Z,9.23
2023-05-04T12:11:20.494Z,8.67
2023-05-04T12:13:49.860Z,9.44
2023-05-04T12:16:19.836Z,10.82
2023-05-04T12:18:48.564Z,11.74
2023-05-04T12:21:21.598Z,12.74
2023-05-04T12:23:49.530Z,13.26
2023-05-04T12:26:19.629Z,14.24
2023-05-04T12:28:48.047Z,14.57
2023-05-04T12:31:15.959Z,14.54
2023-05-04T12:33:43.529Z,14.41
2023-05-04T12:36:11.422Z,13.98
2023-05-04T12:38:39.293Z,13.63
2023-05-04T12:41:10.759Z,13.36
2023-05-04T12:43:38.634Z,13.68
2023-05-04T12:46:06.749Z,13.82
2023-05-04T12:48:34.762Z,14.17
2023-05-04T12:51:04.317Z,14.76
2023-05-04T12:53:32.443Z,15.50
2023-05-04T12:56:01.913Z,16.18
2023-05-04T12:58:30.610Z,16.53
2023-05-04T13:00:59.021Z,16.60
2023-05-04T13:03:26.989Z,17.04
2023-05-04T13:05:54.875Z,17.05
2023-05-04T13:08:22.342Z,17.05
2023-05-04T13:10:51.528Z,17.11
2023-05-04T13:13:19.613Z,16.91
2023-05-04T13:15:50.436Z,17.25
2023-05-04T13:18:18.210Z,17.18
2023-05-04T13:20:46.299Z,17.46
2023-05-04T13:23:14.438Z,17.55
2023-05-04T13:25:42.314Z,18.00
2023-05-04T13:28:09.866Z,18.39
2023-05-04T13:30:37.305Z,18.69
2023-05-04T13:33:13.378Z,18.59
2023-05-04T13:35:48.980Z,18.75
2023-05-04T13:38:16.561Z,19.02
2023-05-04T13:40:44.311Z,19.45
2023-05-04T13:43:11.796Z,19.59
2023-05-04T13:45:39.553Z,20.47
2023-05-04T13:48:07.329Z,20.52
2023-05-04T13:50:36.579Z,20.45
2023-05-04T13:53:04.430Z,20.28
2023-05-04T13:55:32.572Z,20.25
2023-05-04T13:58:00.725Z,20.38
2023-05-04T14:00:28.298Z,20.57
2023-05-04T14:02:56.169Z,20.56
2023-05-04T14:05:24.108Z,20.74
2023-05-04T14:07:53.062Z,20.90
2023-05-04T14:10:21.124Z,20.89
2023-05-04T14:12:48.763Z,20.92
2023-05-04T14:15:16.851Z,20.94
2023-05-04T14:17:44.450Z,21.26
2023-05-04T14:20:15.047Z,21.03
2023-05-04T14:22:42.765Z,21.09
2023-05-04T14:25:10.245Z,21.27
2023-05-04T14:27:38.022Z,22.11
2023-05-04T14:30:06.254Z,21.96
2023-05-04T14:32:34.689Z,21.73
2023-05-04T14:35:10.031Z,22.27
2023-05-04T14:37:39.265Z,21.81
2023-05-04T14:40:11.139Z,21.59
2023-05-04T14:42:39.301Z,21.60
2023-05-04T14:45:08.492Z,21.44
2023-05-04T14:47:36.572Z,21.64
2023-05-04T14:50:05.332Z,21.71
2023-05-04T14:52:33.506Z,21.68
2023-05-04T14:55:02.691Z,21.81
2023-05-04T14:57:31.804Z,21.89
2023-05-04T14:59:59.995Z,22.20
2023-05-04T15:02:27.867Z,22.37
2023-05-04T15:04:55.507Z,22.59
2023-05-04T15:07:23.109Z,22.97
2023-05-04T15:09:50.802Z,23.10
2023-05-04T15:12:18.594Z,22.97
2023-05-04T15:14:46.499Z,22.98
2023-05-04T15:17:14.339Z,22.98
2023-05-04T15:19:43.632Z,23.08
2023-05-04T15:22:11.335Z,22.81
2023-05-04T15:24:39.163Z,23.05
2023-05-04T15:27:06.722Z,23.11
2023-05-04T15:29:34.447Z,23.24
2023-05-04T15:32:01.952Z,23.16
2023-05-04T15:34:29.775Z,23.39
2023-05-04T15:36:57.278Z,23.34
2023-05-04T15:39:25.119Z,23.37
2023-05-04T15:41:52.691Z,23.38
2023-05-04T15:44:21.199Z,23.59
2023-05-04T15:46:49.555Z,23.83
2023-05-04T15:49:17.312Z,23.77
2023-05-04T15:51:45.250Z,23.61
2023-05-04T15:54:12.918Z,23.67
2023-05-04T15:56:40.653Z,24.12
2023-05-04T15:59:08.247Z,24.10
2023-05-04T16:01:36.019Z,24.23
2023-05-04T16:04:03.814Z,24.22
2023-05-04T16:06:31.889Z,24.26
2023-05-04T16:09:00.134Z,24.27
2023-05-04T16:11:27.874Z,24.52
2023-05-04T16:13:55.733Z,24.36
2023-05-04T16:16:24.736Z,24.50
2023-05-04T16:18:53.082Z,24.53
2023-05-04T16:21:21.356Z,24.47
2023-05-04T16:23:48.934Z,24.81
2023-05-04T16:26:16.767Z,24.56
2023-05-04T16:28:45.496Z,24.39
2023-05-04T16:31:13.267Z,24.56
2023-05-04T16:33:47.236Z,24.65
2023-05-04T16:36:15.151Z,24.26
2023-05-04T16:38:42.700Z,24.30
2023-05-04T16:41:10.349Z,24.31
2023-05-04T16:43:37.893Z,24.43
2023-05-04T16:46:05.544Z,24.46
2023-05-04T16:48:33.163Z,24.70
2023-05-04T16:51:00.954Z,24.92
2023-05-04T16:53:28.431Z,24.78
2023-05-04T16:55:55.950Z,25.22
2023-05-04T16:58:23.758Z,25.16
2023-05-04T17:00:51.410Z,25.34
2023-05-04T17:03:19.102Z,25.45
2023-05-04T17:05:47.371Z,25.68
2023-05-04T17:08:14.976Z,25.78
2023-05-04T17:10:42.843Z,25.90
2023-05-04T17:13:10.521Z,25.91
2023-05-04T17:15:38.058Z,26.10
2023-05-04T17:18:05.970Z,26.15
2023-05-04T17:20:33.551Z,26.31
2023-05-04T17:23:01.294Z,26.27
2023-05-04T17:25:28.968Z,26.39
2023-05-04T17:27:56.629Z,26.85
2023-05-04T17:30:24.350Z,26.97
2023-05-04T17:32:54.405Z,27.03
2023-05-04T17:35:25.974Z,27.15
2023-05-04T17:37:58.782Z,27.73
2023-05-04T17:40:28.357Z,27.52
2023-05-04T17:42:57.146Z,27.62
2023-05-04T17:45:24.664Z,27.53
2023-05-04T17:47:53.021Z,27.78
2023-05-04T17:50:21.325Z,27.70
2023-05-04T17:52:54.137Z,28.22
2023-05-04T17:55:26.191Z,28.05
2023-05-04T17:57:54.790Z,28.05
2023-05-04T18:00:22.606Z,27.98
2023-05-04T18:02:50.219Z,28.30
2023-05-04T18:05:18.124Z,28.30
2023-05-04T18:07:45.776Z,28.41
2023-05-04T18:10:13.556Z,28.38
2023-05-04T18:12:41.080Z,28.60
2023-05-04T18:15:09.772Z,28.63
2023-05-04T18:17:40.643Z,28.57
2023-05-04T18:20:09.362Z,28.60
2023-05-04T18:22:37.246Z,28.55
2023-05-04T18:25:05.236Z,28.62
2023-05-04T18:27:34.082Z,28.84
2023-05-04T18:30:03.673Z,28.93
2023-05-04T18:32:35.204Z,28.84
2023-05-04T18:35:03.540Z,28.90
2023-05-04T18:37:34.581Z,29.14
2023-05-04T18:40:02.444Z,29.00
2023-05-04T18:42:32.512Z,29.19
2023-05-04T18:45:00.190Z,29.26
2023-05-04T18:47:27.930Z,29.19
2023-05-04T18:49:56.454Z,29.42
2023-05-04T18:52:24.149Z,29.97
2023-05-04T18:54:52.145Z,30.25
2023-05-04T18:57:19.716Z,30.13
2023-05-04T18:59:47.293Z,30.17
2023-05-04T19:02:14.889Z,30.17
2023-05-04T19:04:43.130Z,30.37
2023-05-04T19:07:10.855Z,30.68
2023-05-04T19:09:38.468Z,30.56
2023-05-04T19:12:06.417Z,30.67
2023-05-04T19:14:34.082Z,30.79
2023-05-04T19:17:02.380Z,31.11
2023-05-04T19:19:30.746Z,30.95
2023-05-04T19:21:58.734Z,30.99
2023-05-04T19:24:26.293Z,31.15
2023-05-04T19:26:54.221Z,30.90
2023-05-04T19:29:21.912Z,31.50
2023-05-04T19:31:49.610Z,31.56
2023-05-04T19:34:17.953Z,31.89
2023-05-04T19:36:45.603Z,32.01
2023-05-04T19:39:13.421Z,32.20
2023-05-04T19:41:41.195Z,32.13
2023-05-04T19:44:10.219Z,32.27
2023-05-04T19:46:38.089Z,31.88
2023-05-04T19:49:05.796Z,32.03
2023-05-04T19:51:33.954Z,32.24
2023-05-04T19:54:01.727Z,32.08
2023-05-04T19:56:29.547Z,32.16
2023-05-04T19:58:57.375Z,32.48
2023-05-04T20:01:25.017Z,32.54
2023-05-04T20:03:52.916Z,32.86
2023-05-04T20:06:20.447Z,32.58
2023-05-04T20:08:48.043Z,32.88
2023-05-04T20:11:15.799Z,32.93
2023-05-04T20:13:43.350Z,32.76
2023-05-04T20:16:11.100Z,32.90
2023-05-04T20:18:38.955Z,33.17
2023-05-04T20:21:06.460Z,33.30
2023-05-04T20:23:34.029Z,33.42
2023-05-04T20:26:02.594Z,33.65
2023-05-04T20:28:32.581Z,33.64
2023-05-04T20:31:00.115Z,33.74
2023-05-04T20:33:27.805Z,33.90
2023-05-04T20:35:55.558Z,34.24
2023-05-04T20:38:23.192Z,34.21
2023-05-04T20:40:52.540Z,34.44
2023-05-04T20:43:20.959Z,34.66
2023-05-04T20:45:48.916Z,34.97
2023-05-04T20:48:16.491Z,34.93
2023-05-04T20:50:44.098Z,35.33
2023-05-04T20:53:12.510Z,35.19
2023-05-04T20:55:40.649Z,34.94
2023-05-04T20:58:08.571Z,35.13
2023-05-04T21:00:36.501Z,35.19
2023-05-04T21:03:04.401Z,35.21
2023-05-04T21:05:32.229Z,35.52
2023-05-04T21:08:01.218Z,35.57
2023-05-04T21:10:28.862Z,35.60
2023-05-04T21:12:57.673Z,36.25
2023-05-04T21:15:25.505Z,36.52
2023-05-04T21:17:53.549Z,36.67
2023-05-04T21:20:21.321Z,36.92
2023-05-04T21:22:48.902Z,36.96
2023-05-04T21:25:17.379Z,37.57
2023-05-04T21:27:45.444Z,37.54
2023-05-04T21:30:13.188Z,37.82
2023-05-04T21:32:40.772Z,38.07
2023-05-04T21:35:08.749Z,38.31
2023-05-04T21:37:36.505Z,38.57
2023-05-04T21:40:04.472Z,38.57
2023-05-04T21:42:32.670Z,39.01
2023-05-04T21:45:00.528Z,39.11
2023-05-04T21:47:28.212Z,39.06
2023-05-04T21:49:56.625Z,39.32
2023-05-04T21:52:24.494Z,39.40
2023-05-04T21:54:52.107Z,39.43
2023-05-04T21:57:19.701Z,39.62
2023-05-04T21:59:50.074Z,39.77
2023-05-04T22:02:17.942Z,39.41
2023-05-04T22:04:45.737Z,39.44
2023-05-04T22:07:13.393Z,39.54
2023-05-04T22:09:40.885Z,39.50
2023-05-04T22:12:08.443Z,39.17
2023-05-04T22:14:35.984Z,39.48
2023-05-04T22:17:03.950Z,39.72
2023-05-04T22:19:31.669Z,39.33
2023-05-04T22:21:59.170Z,39.54
2023-05-04T22:24:26.918Z,39.53
2023-05-04T22:26:54.449Z,39.87
2023-05-04T22:29:22.220Z,39.79
2023-05-04T22:31:49.679Z,39.71
2023-05-04T22:34:17.236Z,39.52
2023-05-04T22:36:44.701Z,39.88
2023-05-04T22:39:12.589Z,39.71
2023-05-04T22:41:40.036Z,40.05
2023-05-04T22:44:07.830Z,39.88
2023-05-04T22:46:35.294Z,40.05
2023-05-04T22:49:02.997Z,39.65
2023-05-04T22:51:30.660Z,39.77
2023-05-04T22:53:58.085Z,39.67
2023-05-04T22:56:26.023Z,39.77
2023-05-04T22:58:53.475Z,39.81
2023-05-04T23:01:21.329Z,39.69
2023-05-04T23:03:49.077Z,40.02
2023-05-04T23:06:16.716Z,39.94
2023-05-04T23:08:45.540Z,39.65
2023-05-04T23:11:13.122Z,39.51
2023-05-04T23:13:40.630Z,39.71
2023-05-04T23:16:08.203Z,39.84
2023-05-04T23:18:35.749Z,39.60
2023-05-04T23:21:03.217Z,40.09
2023-05-04T23:23:31.247Z,40.20
2023-05-04T23:25:58.732Z,40.53
2023-05-04T23:28:26.295Z,40.25
2023-05-04T23:30:55.758Z,40.32
2023-05-04T23:33:23.364Z,40.33
2023-05-04T23:35:54.725Z,41.33
2023-05-04T23:38:23.051Z,40.90
2023-05-04T23:40:51.843Z,40.75
2023-05-04T23:43:19.653Z,40.80
2023-05-04T23:45:47.212Z,40.98
2023-05-04T23:48:14.670Z,41.02
2023-05-04T23:50:52.827Z,41.85
2023-05-04T23:53:20.497Z,40.99
2023-05-04T23:55:56.048Z,41.15
2023-05-04T23:58:23.557Z,41.25
